sensor_id;sensor_type;location;lat;lon;timestamp;pressure;altitude;pressure_sealevel;temperature;humidity
10638;BME280;47007;49.252;8.904;2023-04-22T00:00:32;99158.25;;;11.04;100.00
10638;BME280;47007;49.252;8.904;2023-04-22T00:01:14;99143.97;;;10.99;100.00
10638;BME280;47007;49.252;8.904;2023-04-22T00:01:56;99145.38;;;11.01;100.00
10638;BME280;47007;49.252;8.904;2023-04-22T00:02:37;99139.28;;;10.94;100.00
10638;BME280;47007;49.252;8.904;2023-04-22T00:03:20;99149.88;;;11.01;100.00
10638;BME280;47007;49.252;8.904;2023-04-22T00:04:05;99132.34;;;10.93;100.00
10638;BME280;47007;49.252;8.904;2023-04-22T00:04:48;99152.75;;;10.99;100.00
10638;BME280;47007;49.252;8.904;2023-04-22T00:05:30;99142.13;;;10.93;100.00
10638;BME280;47007;49.252;8.904;2023-04-22T00:06:12;99137.84;;;10.92;100.00
10638;BME280;47007;49.252;8.904;2023-04-22T00:06:54;99140.88;;;10.89;100.00
10638;BME280;47007;49.252;8.904;2023-04-22T00:07:36;99138.47;;;10.87;100.00
10638;BME280;47007;49.252;8.904;2023-04-22T00:08:17;99142.50;;;10.90;100.00
10638;BME280;47007;49.252;8.904;2023-04-22T00:08:59;99147.81;;;10.90;100.00
10638;BME280;47007;49.252;8.904;2023-04-22T00:09:41;99148.84;;;10.89;100.00
10638;BME280;47007;49.252;8.904;2023-04-22T00:10:23;99143.75;;;10.87;100.00
10638;BME280;47007;49.252;8.904;2023-04-22T00:11:05;99135.78;;;10.80;100.00
10638;BME280;47007;49.252;8.904;2023-04-22T00:11:47;99129.03;;;10.78;100.00
10638;BME280;47007;49.252;8.904;2023-04-22T00:12:28;99141.31;;;10.86;100.00
10638;BME280;47007;49.252;8.904;2023-04-22T00:13:10;99148.25;;;10.87;100.00
10638;BME280;47007;49.252;8.904;2023-04-22T00:13:52;99144.56;;;10.88;100.00
10638;BME280;47007;49.252;8.904;2023-04-22T00:14:34;99145.38;;;10.88;100.00
10638;BME280;47007;49.252;8.904;2023-04-22T00:15:16;99128.66;;;10.81;100.00
10638;BME280;47007;49.252;8.904;2023-04-22T00:16:05;99139.66;;;10.91;100.00
10638;BME280;47007;49.252;8.904;2023-04-22T00:16:47;99136.19;;;10.84;100.00
10638;BME280;47007;49.252;8.904;2023-04-22T00:17:28;99140.69;;;10.90;100.00
10638;BME280;47007;49.252;8.904;2023-04-22T00:18:10;99124.97;;;10.82;100.00
10638;BME280;47007;49.252;8.904;2023-04-22T00:18:54;99138.84;;;10.91;100.00
10638;BME280;47007;49.252;8.904;2023-04-22T00:19:36;99107.44;;;10.74;100.00
10638;BME280;47007;49.252;8.904;2023-04-22T00:20:19;99135.81;;;10.94;100.00
10638;BME280;47007;49.252;8.904;2023-04-22T00:21:04;99139.91;;;10.96;100.00
10638;BME280;47007;49.252;8.904;2023-04-22T00:21:46;99132.72;;;10.90;100.00
10638;BME280;47007;49.252;8.904;2023-04-22T00:22:28;99130.50;;;10.94;100.00
10638;BME280;47007;49.252;8.904;2023-04-22T00:23:11;99129.09;;;10.98;100.00
10638;BME280;47007;49.252;8.904;2023-04-22T00:23:53;99140.50;;;11.05;100.00
10638;BME280;47007;49.252;8.904;2023-04-22T00:24:34;99122.97;;;10.97;100.00
10638;BME280;47007;49.252;8.904;2023-04-22T00:25:16;99141.31;;;11.05;100.00
10638;BME280;47007;49.252;8.904;2023-04-22T00:25:59;99146.63;;;11.05;100.00
10638;BME280;47007;49.252;8.904;2023-04-22T00:26:40;99134.19;;;10.99;100.00
10638;BME280;47007;49.252;8.904;2023-04-22T00:27:22;99138.88;;;10.97;100.00
10638;BME280;47007;49.252;8.904;2023-04-22T00:28:04;99138.44;;;11.00;100.00
10638;BME280;47007;49.252;8.904;2023-04-22T00:28:46;99137.25;;;10.96;100.00
10638;BME280;47007;49.252;8.904;2023-04-22T00:29:28;99132.75;;;10.97;100.00
10638;BME280;47007;49.252;8.904;2023-04-22T00:30:10;99124.78;;;10.90;100.00
10638;BME280;47007;49.252;8.904;2023-04-22T00:30:52;99119.09;;;10.87;100.00
10638;BME280;47007;49.252;8.904;2023-04-22T00:31:34;99134.16;;;10.93;100.00
10638;BME280;47007;49.252;8.904;2023-04-22T00:32:16;99130.69;;;10.92;100.00
10638;BME280;47007;49.252;8.904;2023-04-22T00:32:58;99132.72;;;10.90;100.00
10638;BME280;47007;49.252;8.904;2023-04-22T00:33:40;99122.13;;;10.90;100.00
10638;BME280;47007;49.252;8.904;2023-04-22T00:34:21;99129.69;;;10.93;100.00
10638;BME280;47007;49.252;8.904;2023-04-22T00:35:03;99133.75;;;11.02;100.00
10638;BME280;47007;49.252;8.904;2023-04-22T00:35:45;99118.69;;;10.96;100.00
10638;BME280;47007;49.252;8.904;2023-04-22T00:36:27;99132.75;;;11.03;100.00
10638;BME280;47007;49.252;8.904;2023-04-22T00:37:09;99130.28;;;11.02;100.00
10638;BME280;47007;49.252;8.904;2023-04-22T00:37:51;99121.09;;;10.91;100.00
10638;BME280;47007;49.252;8.904;2023-04-22T00:38:33;99129.69;;;10.93;100.00
10638;BME280;47007;49.252;8.904;2023-04-22T00:39:14;99112.34;;;10.84;100.00
10638;BME280;47007;49.252;8.904;2023-04-22T00:39:56;99129.25;;;10.90;100.00
10638;BME280;47007;49.252;8.904;2023-04-22T00:40:38;99133.16;;;10.87;100.00
10638;BME280;47007;49.252;8.904;2023-04-22T00:41:21;99124.16;;;10.75;100.00
10638;BME280;47007;49.252;8.904;2023-04-22T00:42:03;99135.78;;;10.80;100.00
10638;BME280;47007;49.252;8.904;2023-04-22T00:42:48;99126.38;;;10.71;100.00
10638;BME280;47007;49.252;8.904;2023-04-22T00:43:31;99135.16;;;10.72;100.00
10638;BME280;47007;49.252;8.904;2023-04-22T00:44:12;99126.78;;;10.62;100.00
10638;BME280;47007;49.252;8.904;2023-04-22T00:44:54;99129.00;;;10.58;100.00
10638;BME280;47007;49.252;8.904;2023-04-22T00:45:36;99120.00;;;10.53;100.00
10638;BME280;47007;49.252;8.904;2023-04-22T00:46:19;99134.13;;;10.60;100.00
10638;BME280;47007;49.252;8.904;2023-04-22T00:47:01;99129.00;;;10.58;100.00
10638;BME280;47007;49.252;8.904;2023-04-22T00:47:44;99132.66;;;10.57;100.00
10638;BME280;47007;49.252;8.904;2023-04-22T00:48:26;99131.03;;;10.56;100.00
10638;BME280;47007;49.252;8.904;2023-04-22T00:49:09;99128.38;;;10.56;100.00
10638;BME280;47007;49.252;8.904;2023-04-22T00:49:52;99140.19;;;10.54;100.00
10638;BME280;47007;49.252;8.904;2023-04-22T00:50:34;99136.13;;;10.58;100.00
10638;BME280;47007;49.252;8.904;2023-04-22T00:51:16;99121.25;;;10.50;100.00
10638;BME280;47007;49.252;8.904;2023-04-22T00:51:58;99129.00;;;10.58;100.00
10638;BME280;47007;49.252;8.904;2023-04-22T00:52:39;99131.88;;;10.70;100.00
10638;BME280;47007;49.252;8.904;2023-04-22T00:53:21;99133.31;;;10.72;100.00
10638;BME280;47007;49.252;8.904;2023-04-22T00:54:03;99128.41;;;10.76;100.00
10638;BME280;47007;49.252;8.904;2023-04-22T00:54:46;99119.06;;;10.73;100.00
10638;BME280;47007;49.252;8.904;2023-04-22T00:55:30;99131.28;;;10.81;100.00
10638;BME280;47007;49.252;8.904;2023-04-22T00:56:11;99129.66;;;10.80;100.00
10638;BME280;47007;49.252;8.904;2023-04-22T00:56:54;99121.28;;;10.76;100.00
10638;BME280;47007;49.252;8.904;2023-04-22T00:57:37;99131.91;;;10.83;100.00
10638;BME280;47007;49.252;8.904;2023-04-22T00:58:20;99126.19;;;10.79;100.00
10638;BME280;47007;49.252;8.904;2023-04-22T00:59:03;99133.16;;;10.87;100.00
10638;BME280;47007;49.252;8.904;2023-04-22T00:59:45;99129.47;;;10.88;100.00
10638;BME280;47007;49.252;8.904;2023-04-22T01:00:27;99131.53;;;10.86;100.00
10638;BME280;47007;49.252;8.904;2023-04-22T01:01:09;99119.69;;;10.75;100.00
10638;BME280;47007;49.252;8.904;2023-04-22T01:02:16;99128.84;;;10.79;100.00
10638;BME280;47007;49.252;8.904;2023-04-22T01:02:59;99133.13;;;10.74;100.00
10638;BME280;47007;49.252;8.904;2023-04-22T01:03:41;99126.97;;;10.67;100.00
10638;BME280;47007;49.252;8.904;2023-04-22T01:04:23;99131.66;;;10.65;100.00
10638;BME280;47007;49.252;8.904;2023-04-22T01:05:05;99131.47;;;10.66;100.00
10638;BME280;47007;49.252;8.904;2023-04-22T01:05:50;99123.72;;;10.65;100.00
10638;BME280;47007;49.252;8.904;2023-04-22T01:06:32;99128.81;;;10.66;100.00
10638;BME280;47007;49.252;8.904;2023-04-22T01:07:16;99125.34;;;10.66;100.00
10638;BME280;47007;49.252;8.904;2023-04-22T01:07:58;99124.13;;;10.62;100.00
10638;BME280;47007;49.252;8.904;2023-04-22T01:08:40;99123.72;;;10.65;100.00
10638;BME280;47007;49.252;8.904;2023-04-22T01:09:22;99119.22;;;10.59;100.00
10638;BME280;47007;49.252;8.904;2023-04-22T01:10:04;99123.72;;;10.65;100.00
10638;BME280;47007;49.252;8.904;2023-04-22T01:10:46;99127.38;;;10.64;100.00
10638;BME280;47007;49.252;8.904;2023-04-22T01:11:27;99130.66;;;10.66;100.00
10638;BME280;47007;49.252;8.904;2023-04-22T01:12:09;99114.31;;;10.56;100.00
10638;BME280;47007;49.252;8.904;2023-04-22T01:12:51;99075.94;;;10.25;100.00
10638;BME280;47007;49.252;8.904;2023-04-22T01:13:32;99124.09;;;10.55;100.00
10638;BME280;47007;49.252;8.904;2023-04-22T01:14:16;99125.50;;;10.51;100.00
10638;BME280;47007;49.252;8.904;2023-04-22T01:14:57;99107.97;;;10.37;100.00
10638;BME280;47007;49.252;8.904;2023-04-22T01:15:39;99127.34;;;10.44;100.00
10638;BME280;47007;49.252;8.904;2023-04-22T01:16:21;99124.88;;;10.42;100.00
10638;BME280;47007;49.252;8.904;2023-04-22T01:17:04;99099.56;;;10.27;100.00
10638;BME280;47007;49.252;8.904;2023-04-22T01:17:47;99128.16;;;10.44;100.00
10638;BME280;47007;49.252;8.904;2023-04-22T01:18:28;99131.41;;;10.47;100.00
10638;BME280;47007;49.252;8.904;2023-04-22T01:19:10;99124.50;;;10.46;100.00
10638;BME280;47007;49.252;8.904;2023-04-22T01:19:52;99126.75;;;10.49;100.00
10638;BME280;47007;49.252;8.904;2023-04-22T01:20:36;99112.47;;;10.50;100.00
10638;BME280;47007;49.252;8.904;2023-04-22T01:21:17;99120.22;;;10.51;100.00
10638;BME280;47007;49.252;8.904;2023-04-22T01:22:00;99116.53;;;10.52;100.00
10638;BME280;47007;49.252;8.904;2023-04-22T01:22:44;99122.47;;;10.54;100.00
10638;BME280;47007;49.252;8.904;2023-04-22T01:23:26;99123.09;;;10.56;100.00
10638;BME280;47007;49.252;8.904;2023-04-22T01:24:08;99111.44;;;10.44;100.00
10638;BME280;47007;49.252;8.904;2023-04-22T01:24:51;99112.84;;;10.40;100.00
10638;BME280;47007;49.252;8.904;2023-04-22T01:25:34;99122.66;;;10.46;100.00
10638;BME280;47007;49.252;8.904;2023-04-22T01:26:16;99111.44;;;10.37;100.00
10638;BME280;47007;49.252;8.904;2023-04-22T01:26:57;99127.34;;;10.44;100.00
10638;BME280;47007;49.252;8.904;2023-04-22T01:27:39;99131.41;;;10.47;100.00
10638;BME280;47007;49.252;8.904;2023-04-22T01:28:22;99118.13;;;10.40;100.00
10638;BME280;47007;49.252;8.904;2023-04-22T01:29:04;99132.25;;;10.47;100.00
10638;BME280;47007;49.252;8.904;2023-04-22T01:29:47;99116.94;;;10.42;100.00
10638;BME280;47007;49.252;8.904;2023-04-22T01:30:28;99123.09;;;10.50;100.00
10638;BME280;47007;49.252;8.904;2023-04-22T01:31:11;99127.56;;;10.49;100.00
10638;BME280;47007;49.252;8.904;2023-04-22T01:31:54;99128.56;;;10.48;100.00
10638;BME280;47007;49.252;8.904;2023-04-22T01:32:38;99132.88;;;10.49;100.00
10638;BME280;47007;49.252;8.904;2023-04-22T01:33:20;99135.50;;;10.49;100.00
10638;BME280;47007;49.252;8.904;2023-04-22T01:34:02;99118.13;;;10.33;100.00
10638;BME280;47007;49.252;8.904;2023-04-22T01:34:44;99137.72;;;10.46;100.00
10638;BME280;47007;49.252;8.904;2023-04-22T01:35:26;99134.66;;;10.42;100.00
10638;BME280;47007;49.252;8.904;2023-04-22T01:36:10;99142.59;;;10.42;100.00
10638;BME280;47007;49.252;8.904;2023-04-22T01:36:53;99127.09;;;10.32;100.00
10638;BME280;47007;49.252;8.904;2023-04-22T01:37:35;99143.81;;;10.39;100.00
10638;BME280;47007;49.252;8.904;2023-04-22T01:38:17;99138.13;;;10.42;100.00
10638;BME280;47007;49.252;8.904;2023-04-22T01:38:59;99136.28;;;10.43;100.00
10638;BME280;47007;49.252;8.904;2023-04-22T01:39:41;99135.09;;;10.46;100.00
10638;BME280;47007;49.252;8.904;2023-04-22T01:40:23;99142.84;;;10.47;100.00
10638;BME280;47007;49.252;8.904;2023-04-22T01:41:07;99126.91;;;10.40;100.00
10638;BME280;47007;49.252;8.904;2023-04-22T01:41:49;99125.69;;;10.43;100.00
10638;BME280;47007;49.252;8.904;2023-04-22T01:42:31;99124.69;;;10.37;100.00
10638;BME280;47007;49.252;8.904;2023-04-22T01:43:13;99136.91;;;10.52;100.00
10638;BME280;47007;49.252;8.904;2023-04-22T01:43:56;99148.75;;;10.56;100.00
10638;BME280;47007;49.252;8.904;2023-04-22T01:44:38;99113.28;;;10.43;100.00
10638;BME280;47007;49.252;8.904;2023-04-22T01:45:20;99137.78;;;10.59;100.00
10638;BME280;47007;49.252;8.904;2023-04-22T01:46:03;99135.75;;;10.61;100.00
10638;BME280;47007;49.252;8.904;2023-04-22T01:46:45;99123.28;;;10.55;100.00
10638;BME280;47007;49.252;8.904;2023-04-22T01:47:27;99137.59;;;10.67;100.00
10638;BME280;47007;49.252;8.904;2023-04-22T01:48:08;99141.88;;;10.68;100.00
10638;BME280;47007;49.252;8.904;2023-04-22T01:48:51;99125.97;;;10.61;100.00
10638;BME280;47007;49.252;8.904;2023-04-22T01:49:35;99127.78;;;10.67;100.00
10638;BME280;47007;49.252;8.904;2023-04-22T01:50:17;99125.53;;;10.64;100.00
10638;BME280;47007;49.252;8.904;2023-04-22T01:50:59;99135.16;;;10.72;100.00
10638;BME280;47007;49.252;8.904;2023-04-22T01:51:40;99137.81;;;10.72;100.00
10638;BME280;47007;49.252;8.904;2023-04-22T01:52:22;99134.53;;;10.70;100.00
10638;BME280;47007;49.252;8.904;2023-04-22T01:53:06;99139.84;;;10.70;100.00
10638;BME280;47007;49.252;8.904;2023-04-22T01:53:49;99136.38;;;10.69;100.00
10638;BME280;47007;49.252;8.904;2023-04-22T01:54:31;99135.75;;;10.67;100.00
10638;BME280;47007;49.252;8.904;2023-04-22T01:55:14;99139.22;;;10.68;100.00
10638;BME280;47007;49.252;8.904;2023-04-22T01:55:58;99135.31;;;10.64;100.00
10638;BME280;47007;49.252;8.904;2023-04-22T01:56:40;99131.25;;;10.61;100.00
10638;BME280;47007;49.252;8.904;2023-04-22T01:57:22;99131.84;;;10.57;100.00
10638;BME280;47007;49.252;8.904;2023-04-22T01:58:04;99140.44;;;10.59;100.00
10638;BME280;47007;49.252;8.904;2023-04-22T01:58:45;99144.09;;;10.58;100.00
10638;BME280;47007;49.252;8.904;2023-04-22T01:59:27;99147.38;;;10.60;100.00
10638;BME280;47007;49.252;8.904;2023-04-22T02:00:09;99142.25;;;10.58;100.00
10638;BME280;47007;49.252;8.904;2023-04-22T02:00:56;99135.94;;;10.59;100.00
10638;BME280;47007;49.252;8.904;2023-04-22T02:01:38;99135.75;;;10.61;100.00
10638;BME280;47007;49.252;8.904;2023-04-22T02:02:20;99123.09;;;10.50;100.00
10638;BME280;47007;49.252;8.904;2023-04-22T02:03:02;99142.06;;;10.60;100.00
10638;BME280;47007;49.252;8.904;2023-04-22T02:03:45;99097.53;;;10.29;100.00
10638;BME280;47007;49.252;8.904;2023-04-22T02:04:27;99142.88;;;10.60;100.00
10638;BME280;47007;49.252;8.904;2023-04-22T02:05:10;99145.34;;;10.62;100.00
10638;BME280;47007;49.252;8.904;2023-04-22T02:05:52;99127.38;;;10.51;100.00
10638;BME280;47007;49.252;8.904;2023-04-22T02:06:33;99154.69;;;10.58;100.00
10638;BME280;47007;49.252;8.904;2023-04-22T02:07:18;99136.72;;;10.53;100.00
10638;BME280;47007;49.252;8.904;2023-04-22T02:08:00;99142.03;;;10.47;100.00
10638;BME280;47007;49.252;8.904;2023-04-22T02:08:41;99145.69;;;10.46;100.00
10638;BME280;47007;49.252;8.904;2023-04-22T02:09:23;99140.78;;;10.42;100.00
10638;BME280;47007;49.252;8.904;2023-04-22T02:10:05;99142.41;;;10.37;100.00
10638;BME280;47007;49.252;8.904;2023-04-22T02:10:47;99149.34;;;10.38;100.00
10638;BME280;47007;49.252;8.904;2023-04-22T02:11:29;99148.28;;;10.39;100.00
10638;BME280;47007;49.252;8.904;2023-04-22T02:12:10;99129.50;;;10.27;100.00
10638;BME280;47007;49.252;8.904;2023-04-22T02:12:53;99151.38;;;10.42;100.00
10638;BME280;47007;49.252;8.904;2023-04-22T02:13:36;99150.34;;;10.43;100.00
10638;BME280;47007;49.252;8.904;2023-04-22T02:14:18;99130.38;;;10.34;100.00
10638;BME280;47007;49.252;8.904;2023-04-22T02:14:59;99097.03;;;10.12;100.00
10638;BME280;47007;49.252;8.904;2023-04-22T02:15:45;99137.94;;;10.44;100.00
10638;BME280;47007;49.252;8.904;2023-04-22T02:16:26;99123.44;;;10.33;100.00
10638;BME280;47007;49.252;8.904;2023-04-22T02:17:08;99146.69;;;10.44;100.00
10638;BME280;47007;49.252;8.904;2023-04-22T02:17:50;99140.56;;;10.44;100.00
10638;BME280;47007;49.252;8.904;2023-04-22T02:18:32;99146.50;;;10.46;100.00
10638;BME280;47007;49.252;8.904;2023-04-22T02:19:13;99137.50;;;10.40;100.00
10638;BME280;47007;49.252;8.904;2023-04-22T02:19:55;99131.81;;;10.37;100.00
10638;BME280;47007;49.252;8.904;2023-04-22T02:20:37;99147.72;;;10.43;100.00
10638;BME280;47007;49.252;8.904;2023-04-22T02:21:19;99154.03;;;10.42;100.00
10638;BME280;47007;49.252;8.904;2023-04-22T02:22:01;99151.75;;;10.39;100.00
10638;BME280;47007;49.252;8.904;2023-04-22T02:22:43;99129.72;;;10.26;100.00
10638;BME280;47007;49.252;8.904;2023-04-22T02:23:26;99149.09;;;10.33;100.00
10638;BME280;47007;49.252;8.904;2023-04-22T02:24:08;99149.28;;;10.31;100.00
10638;BME280;47007;49.252;8.904;2023-04-22T02:24:50;99150.94;;;10.32;100.00
10638;BME280;47007;49.252;8.904;2023-04-22T02:25:31;99146.41;;;10.26;100.00
10638;BME280;47007;49.252;8.904;2023-04-22T02:26:13;99126.84;;;10.21;100.00
10638;BME280;47007;49.252;8.904;2023-04-22T02:26:54;99115.78;;;10.11;100.00
10638;BME280;47007;49.252;8.904;2023-04-22T02:27:36;99138.50;;;10.33;100.00
10638;BME280;47007;49.252;8.904;2023-04-22T02:28:19;99148.91;;;10.41;100.00
10638;BME280;47007;49.252;8.904;2023-04-22T02:29:01;99150.34;;;10.43;100.00
10638;BME280;47007;49.252;8.904;2023-04-22T02:29:43;99148.34;;;10.46;100.00
10638;BME280;47007;49.252;8.904;2023-04-22T02:30:24;99155.25;;;10.47;100.00
10638;BME280;47007;49.252;8.904;2023-04-22T02:31:06;99141.78;;;10.41;100.00
10638;BME280;47007;49.252;8.904;2023-04-22T02:31:48;99153.03;;;10.50;100.00
10638;BME280;47007;49.252;8.904;2023-04-22T02:32:30;99144.66;;;10.47;100.00
10638;BME280;47007;49.252;8.904;2023-04-22T02:33:13;99147.94;;;10.49;100.00
10638;BME280;47007;49.252;8.904;2023-04-22T02:33:54;99144.28;;;10.50;100.00
10638;BME280;47007;49.252;8.904;2023-04-22T02:34:36;99121.78;;;10.32;100.00
10638;BME280;47007;49.252;8.904;2023-04-22T02:35:18;99147.31;;;10.53;100.00
10638;BME280;47007;49.252;8.904;2023-04-22T02:36:02;99145.50;;;10.54;100.00
10638;BME280;47007;49.252;8.904;2023-04-22T02:36:44;99142.03;;;10.53;100.00
10638;BME280;47007;49.252;8.904;2023-04-22T02:37:25;99144.47;;;10.55;100.00
10638;BME280;47007;49.252;8.904;2023-04-22T02:38:09;99144.47;;;10.55;100.00
10638;BME280;47007;49.252;8.904;2023-04-22T02:38:51;99151.41;;;10.56;100.00
10638;BME280;47007;49.252;8.904;2023-04-22T02:39:32;99140.81;;;10.56;100.00
10638;BME280;47007;49.252;8.904;2023-04-22T02:40:14;99138.16;;;10.56;100.00
10638;BME280;47007;49.252;8.904;2023-04-22T02:40:56;99108.97;;;10.36;100.00
10638;BME280;47007;49.252;8.904;2023-04-22T02:41:38;99140.00;;;10.55;100.00
10638;BME280;47007;49.252;8.904;2023-04-22T02:42:21;99137.34;;;10.55;100.00
10638;BME280;47007;49.252;8.904;2023-04-22T02:43:03;99123.25;;;10.41;100.00
10638;BME280;47007;49.252;8.904;2023-04-22T02:43:45;99133.44;;;10.51;100.00
10638;BME280;47007;49.252;8.904;2023-04-22T02:44:27;99140.00;;;10.49;100.00
10638;BME280;47007;49.252;8.904;2023-04-22T02:45:09;99081.53;;;10.09;100.00
10638;BME280;47007;49.252;8.904;2023-04-22T02:45:51;99134.03;;;10.33;100.00
10638;BME280;47007;49.252;8.904;2023-04-22T02:46:33;99140.75;;;10.36;100.00
10638;BME280;47007;49.252;8.904;2023-04-22T02:47:15;99144.63;;;10.33;100.00
10638;BME280;47007;49.252;8.904;2023-04-22T02:47:57;99137.44;;;10.27;100.00
10638;BME280;47007;49.252;8.904;2023-04-22T02:48:38;99144.56;;;10.27;100.00
10638;BME280;47007;49.252;8.904;2023-04-22T02:49:20;99144.81;;;10.25;100.00
10638;BME280;47007;49.252;8.904;2023-04-22T02:50:02;99140.50;;;10.24;100.00
10638;BME280;47007;49.252;8.904;2023-04-22T02:50:44;99147.22;;;10.27;100.00
10638;BME280;47007;49.252;8.904;2023-04-22T02:51:26;99139.28;;;10.27;100.00
10638;BME280;47007;49.252;8.904;2023-04-22T02:52:08;99144.19;;;10.30;100.00
10638;BME280;47007;49.252;8.904;2023-04-22T02:52:49;99143.19;;;10.31;100.00
10638;BME280;47007;49.252;8.904;2023-04-22T02:53:31;99144.81;;;10.32;100.00
10638;BME280;47007;49.252;8.904;2023-04-22T02:54:13;99144.63;;;10.33;100.00
10638;BME280;47007;49.252;8.904;2023-04-22T02:54:55;99144.44;;;10.35;100.00
10638;BME280;47007;49.252;8.904;2023-04-22T02:55:39;99145.06;;;10.37;100.00
10638;BME280;47007;49.252;8.904;2023-04-22T02:56:20;99134.22;;;10.32;100.00
10638;BME280;47007;49.252;8.904;2023-04-22T02:57:02;99138.94;;;10.36;100.00
10638;BME280;47007;49.252;8.904;2023-04-22T02:57:44;99137.50;;;10.40;100.00
10638;BME280;47007;49.252;8.904;2023-04-22T02:58:26;99141.97;;;10.40;100.00
10638;BME280;47007;49.252;8.904;2023-04-22T02:59:08;99145.44;;;10.40;100.00
10638;BME280;47007;49.252;8.904;2023-04-22T02:59:49;99137.91;;;10.37;100.00
10638;BME280;47007;49.252;8.904;2023-04-22T03:00:34;99141.97;;;10.33;100.00
10638;BME280;47007;49.252;8.904;2023-04-22T03:01:16;99139.91;;;10.29;100.00
10638;BME280;47007;49.252;8.904;2023-04-22T03:01:58;99144.19;;;10.23;100.00
10638;BME280;47007;49.252;8.904;2023-04-22T03:02:54;99141.91;;;10.20;100.00
10638;BME280;47007;49.252;8.904;2023-04-22T03:03:41;99143.94;;;10.18;100.00
10638;BME280;47007;49.252;8.904;2023-04-22T03:04:26;99144.09;;;10.17;100.00
10638;BME280;47007;49.252;8.904;2023-04-22T03:05:08;99130.41;;;10.06;100.00
10638;BME280;47007;49.252;8.904;2023-04-22T03:05:51;99134.31;;;10.11;100.00
10638;BME280;47007;49.252;8.904;2023-04-22T03:06:33;99147.41;;;10.19;100.00
10638;BME280;47007;49.252;8.904;2023-04-22T03:07:15;99138.81;;;10.17;100.00
10638;BME280;47007;49.252;8.904;2023-04-22T03:07:56;99139.69;;;10.24;100.00
10638;BME280;47007;49.252;8.904;2023-04-22T03:08:38;99145.63;;;10.26;100.00
10638;BME280;47007;49.252;8.904;2023-04-22T03:09:20;99130.50;;;10.20;100.00
10638;BME280;47007;49.252;8.904;2023-04-22T03:10:01;99121.88;;;10.11;100.00
10638;BME280;47007;49.252;8.904;2023-04-22T03:10:43;99128.22;;;10.17;100.00
10638;BME280;47007;49.252;8.904;2023-04-22T03:11:25;99086.53;;;9.84;100.00
10638;BME280;47007;49.252;8.904;2023-04-22T03:12:08;99142.28;;;10.17;100.00
10638;BME280;47007;49.252;8.904;2023-04-22T03:12:49;99141.06;;;10.13;100.00
10638;BME280;47007;49.252;8.904;2023-04-22T03:13:32;99137.78;;;10.11;100.00
10638;BME280;47007;49.252;8.904;2023-04-22T03:14:13;99141.63;;;10.08;100.00
10638;BME280;47007;49.252;8.904;2023-04-22T03:14:55;99146.72;;;10.10;100.00
10638;BME280;47007;49.252;8.904;2023-04-22T03:15:40;99146.53;;;10.12;100.00
10638;BME280;47007;49.252;8.904;2023-04-22T03:16:22;99146.53;;;10.12;100.00
10638;BME280;47007;49.252;8.904;2023-04-22T03:17:05;99152.66;;;10.12;100.00
10638;BME280;47007;49.252;8.904;2023-04-22T03:17:47;99143.25;;;10.09;100.00
10638;BME280;47007;49.252;8.904;2023-04-22T03:18:30;99145.94;;;10.16;100.00
10638;BME280;47007;49.252;8.904;2023-04-22T03:19:11;99146.75;;;10.17;100.00
10638;BME280;47007;49.252;8.904;2023-04-22T03:19:53;99135.75;;;10.13;100.00
10638;BME280;47007;49.252;8.904;2023-04-22T03:20:35;99134.25;;;10.04;100.00
10638;BME280;47007;49.252;8.904;2023-04-22T03:21:18;99096.88;;;9.79;100.00
10638;BME280;47007;49.252;8.904;2023-04-22T03:21:59;99081.34;;;9.69;100.00
10638;BME280;47007;49.252;8.904;2023-04-22T03:22:41;99152.03;;;10.10;100.00
10638;BME280;47007;49.252;8.904;2023-04-22T03:23:25;99150.38;;;10.09;100.00
10638;BME280;47007;49.252;8.904;2023-04-22T03:24:06;99122.59;;;9.92;100.00
10638;BME280;47007;49.252;8.904;2023-04-22T03:24:49;99154.63;;;10.03;100.00
10638;BME280;47007;49.252;8.904;2023-04-22T03:25:31;99133.44;;;9.97;100.00
10638;BME280;47007;49.252;8.904;2023-04-22T03:26:12;99144.66;;;10.05;100.00
10638;BME280;47007;49.252;8.904;2023-04-22T03:26:55;99138.53;;;10.05;100.00
10638;BME280;47007;49.252;8.904;2023-04-22T03:27:37;99098.50;;;9.80;100.00
10638;BME280;47007;49.252;8.904;2023-04-22T03:28:19;99141.19;;;10.05;100.00
10638;BME280;47007;49.252;8.904;2023-04-22T03:29:01;99148.31;;;10.04;100.00
10638;BME280;47007;49.252;8.904;2023-04-22T03:29:43;99155.44;;;10.04;100.00
10638;BME280;47007;49.252;8.904;2023-04-22T03:30:24;99144.44;;;10.00;100.00
10638;BME280;47007;49.252;8.904;2023-04-22T03:31:07;99144.22;;;10.02;100.00
10638;BME280;47007;49.252;8.904;2023-04-22T03:31:48;99156.66;;;10.01;100.00
10638;BME280;47007;49.252;8.904;2023-04-22T03:32:30;99145.25;;;10.01;100.00
10638;BME280;47007;49.252;8.904;2023-04-22T03:33:29;99128.91;;;9.91;100.00
10638;BME280;47007;49.252;8.904;2023-04-22T03:34:17;99148.91;;;10.00;100.00
10638;BME280;47007;49.252;8.904;2023-04-22T03:34:59;99145.66;;;9.98;100.00
10638;BME280;47007;49.252;8.904;2023-04-22T03:35:42;99130.72;;;9.90;100.00
10638;BME280;47007;49.252;8.904;2023-04-22T03:36:25;99132.38;;;9.91;100.00
10638;BME280;47007;49.252;8.904;2023-04-22T03:37:08;99116.84;;;9.82;100.00
10638;BME280;47007;49.252;8.904;2023-04-22T03:37:50;99146.06;;;10.01;100.00
10638;BME280;47007;49.252;8.904;2023-04-22T03:38:40;99146.47;;;9.98;100.00
10638;BME280;47007;49.252;8.904;2023-04-22T03:39:21;99147.91;;;10.01;100.00
10638;BME280;47007;49.252;8.904;2023-04-22T03:40:04;99149.94;;;9.99;100.00
10638;BME280;47007;49.252;8.904;2023-04-22T03:40:46;99146.47;;;9.98;100.00
10638;BME280;47007;49.252;8.904;2023-04-22T03:41:35;99125.41;;;9.84;100.00
10638;BME280;47007;49.252;8.904;2023-04-22T03:42:17;99147.03;;;9.94;100.00